createdAt,value
2022-10-04T00:00:50.539Z,101325.88
2022-10-04T00:03:26.062Z,101322.16
2022-10-04T00:05:56.693Z,101329.75
2022-10-04T00:08:32.863Z,101322.00
2022-10-04T00:11:06.951Z,101311.88
2022-10-04T00:13:37.603Z,101305.97
2022-10-04T00:16:05.963Z,101307.50
2022-10-04T00:18:41.019Z,101305.47
2022-10-04T00:21:09.878Z,101312.22
2022-10-04T00:23:48.683Z,101309.53
2022-10-04T00:26:57.812Z,101324.88
2022-10-04T00:29:31.905Z,101324.88
2022-10-04T00:32:27.408Z,101307.69
2022-10-04T00:34:56.655Z,101305.31
2022-10-04T00:37:26.081Z,101298.56
2022-10-04T00:40:15.622Z,101287.78
2022-10-04T00:42:50.539Z,101293.00
2022-10-04T00:45:29.376Z,101302.44
2022-10-04T00:48:05.278Z,101286.78
2022-10-04T00:50:37.962Z,101297.41
2022-10-04T00:53:17.628Z,101295.19
2022-10-04T00:55:51.135Z,101294.50
2022-10-04T00:58:24.533Z,101291.34
2022-10-04T01:00:55.562Z,101298.59
2022-10-04T01:03:30.386Z,101298.56
2022-10-04T01:06:02.110Z,101299.75
2022-10-04T01:08:33.344Z,101299.09
2022-10-04T01:11:06.199Z,101308.00
2022-10-04T01:13:40.147Z,101298.50
2022-10-04T01:16:15.422Z,101308.59
2022-10-04T01:18:43.578Z,101302.19
2022-10-04T01:21:28.064Z,101298.81
2022-10-04T01:24:17.749Z,101300.94
2022-10-04T01:26:46.549Z,101293.63
2022-10-04T01:29:18.167Z,101281.28
2022-10-04T01:31:48.080Z,101260.38
2022-10-04T01:34:18.115Z,101274.69
2022-10-04T01:36:47.100Z,101265.38
2022-10-04T01:39:17.988Z,101259.00
2022-10-04T01:41:49.850Z,101262.63
2022-10-04T01:44:26.111Z,101274.47
2022-10-04T01:46:57.630Z,101266.00
2022-10-04T01:49:30.182Z,101266.16
2022-10-04T01:52:03.578Z,101269.59
2022-10-04T01:54:35.661Z,101265.38
2022-10-04T01:57:11.623Z,101264.41
2022-10-04T01:59:45.917Z,101264.06
2022-10-04T02:02:23.497Z,101259.00
2022-10-04T02:04:54.899Z,101252.44
2022-10-04T02:07:26.096Z,101252.78
2022-10-04T02:09:59.623Z,101260.72
2022-10-04T02:12:31.365Z,101256.31
2022-10-04T02:15:02.186Z,101233.75
2022-10-04T02:17:32.602Z,101249.25
2022-10-04T02:20:02.312Z,101243.19
2022-10-04T02:22:30.667Z,101233.25
2022-10-04T02:25:00.281Z,101228.34
2022-10-04T02:27:29.948Z,101217.38
2022-10-04T02:30:02.500Z,101214.34
2022-10-04T02:32:50.768Z,101227.47
2022-10-04T02:35:20.992Z,101222.72
2022-10-04T02:37:52.895Z,101195.44
2022-10-04T02:40:30.075Z,101222.06
2022-10-04T02:43:02.411Z,101223.03
2022-10-04T02:45:41.025Z,101229.28
2022-10-04T02:48:22.781Z,101203.31
2022-10-04T02:50:54.842Z,101237.53
2022-10-04T02:53:27.642Z,101229.78
2022-10-04T02:55:57.230Z,101227.59
2022-10-04T02:58:27.116Z,101225.91
2022-10-04T03:00:58.702Z,101241.59
2022-10-04T03:03:28.796Z,101236.31
2022-10-04T03:06:01.820Z,101236.88
2022-10-04T03:08:34.496Z,101232.47
2022-10-04T03:11:05.318Z,101230.28
2022-10-04T03:13:34.437Z,101219.53
2022-10-04T03:16:02.879Z,101223.06
2022-10-04T03:18:31.976Z,101221.09
2022-10-04T03:21:03.375Z,101221.94
2022-10-04T03:23:33.518Z,101228.34
2022-10-04T03:26:10.917Z,101225.09
2022-10-04T03:28:39.386Z,101226.63
2022-10-04T03:31:07.593Z,101222.59
2022-10-04T03:33:35.499Z,101205.22
2022-10-04T03:36:03.773Z,101213.28
2022-10-04T03:38:35.747Z,101212.44
2022-10-04T03:41:05.176Z,101214.00
2022-10-04T03:43:37.570Z,101201.63
2022-10-04T03:46:07.251Z,101199.59
2022-10-04T03:48:38.979Z,101204.50
2022-10-04T03:51:11.887Z,101199.31
2022-10-04T03:53:43.201Z,101203.88
2022-10-04T03:56:15.436Z,101201.50
2022-10-04T03:58:43.912Z,101196.44
2022-10-04T04:01:26.255Z,101204.56
2022-10-04T04:04:03.910Z,101201.72
2022-10-04T04:06:41.356Z,101204.06
2022-10-04T04:09:17.764Z,101205.44
2022-10-04T04:11:50.376Z,101205.94
2022-10-04T04:14:25.083Z,101195.97
2022-10-04T04:16:54.229Z,101194.13
2022-10-04T04:19:26.016Z,101182.47
2022-10-04T04:21:56.932Z,101191.75
2022-10-04T04:24:32.155Z,101188.22
2022-10-04T04:27:05.110Z,101189.50
2022-10-04T04:29:37.568Z,101178.25
2022-10-04T04:32:09.837Z,101199.03
2022-10-04T04:34:52.804Z,101190.00
2022-10-04T04:37:21.417Z,101192.56
2022-10-04T04:39:54.883Z,101201.31
2022-10-04T04:42:31.830Z,101193.41
2022-10-04T04:45:02.594Z,101193.41
2022-10-04T04:47:34.750Z,101187.19
2022-10-04T04:50:07.684Z,101187.28
2022-10-04T04:52:37.073Z,101177.16
2022-10-04T04:55:06.357Z,101173.13
2022-10-04T04:57:35.418Z,101175.31
2022-10-04T05:00:04.407Z,101186.56
2022-10-04T05:02:35.416Z,101179.66
2022-10-04T05:05:21.622Z,101176.97
2022-10-04T05:07:49.717Z,101189.94
2022-10-04T05:10:23.145Z,101187.41
2022-10-04T05:12:52.265Z,101179.84
2022-10-04T05:15:20.132Z,101185.25
2022-10-04T05:17:47.929Z,101192.34
2022-10-04T05:20:16.501Z,101189.44
2022-10-04T05:22:49.074Z,101197.03
2022-10-04T05:25:27.618Z,101191.13
2022-10-04T05:27:57.217Z,101201.25
2022-10-04T05:30:38.680Z,101200.41
2022-10-04T05:33:08.388Z,101203.44
2022-10-04T05:35:50.284Z,101198.22
2022-10-04T05:38:27.606Z,101199.34
2022-10-04T05:41:02.374Z,101186.44
2022-10-04T05:43:38.427Z,101192.66
2022-10-04T05:46:18.448Z,101192.78
2022-10-04T05:48:49.338Z,101183.63
2022-10-04T05:51:20.673Z,101187.94
2022-10-04T05:53:49.924Z,101194.16
2022-10-04T05:56:35.654Z,101202.09
2022-10-04T05:59:16.311Z,101200.22
2022-10-04T06:01:50.677Z,101196.38
2022-10-04T06:04:31.190Z,101201.59
2022-10-04T06:07:02.800Z,101189.63
2022-10-04T06:09:44.763Z,101206.81
2022-10-04T06:12:20.357Z,101206.63
2022-10-04T06:15:02.357Z,101212.38
2022-10-04T06:17:43.660Z,101225.69
2022-10-04T06:20:26.909Z,101221.13
2022-10-04T06:23:00.171Z,101222.63
2022-10-04T06:25:32.702Z,101219.75
2022-10-04T06:28:12.663Z,101220.50
2022-10-04T06:31:01.456Z,101228.59
2022-10-04T06:33:44.980Z,101224.16
2022-10-04T06:36:31.984Z,101215.72
2022-10-04T06:39:28.689Z,101218.03
2022-10-04T06:42:25.074Z,101218.28
2022-10-04T06:45:23.277Z,101225.75
2022-10-04T06:48:22.698Z,101214.94
2022-10-04T06:50:56.419Z,101224.75
2022-10-04T06:53:36.282Z,101222.38
2022-10-04T06:56:31.868Z,101213.03
2022-10-04T06:59:25.083Z,101206.69
2022-10-04T07:01:58.816Z,101200.56
2022-10-04T07:04:56.174Z,101206.84
2022-10-04T07:07:36.283Z,101201.50
2022-10-04T07:10:23.233Z,101201.44
2022-10-04T07:12:58.070Z,101196.88
2022-10-04T07:15:30.284Z,101193.63
2022-10-04T07:18:06.225Z,101174.41
2022-10-04T07:20:37.621Z,101184.38
2022-10-04T07:23:14.173Z,101162.50
2022-10-04T07:25:46.648Z,101180.16
2022-10-04T07:28:36.183Z,101181.00
2022-10-04T07:31:10.672Z,101179.72
2022-10-04T07:33:45.875Z,101189.59
2022-10-04T07:36:22.020Z,101194.53
2022-10-04T07:38:54.263Z,101182.97
2022-10-04T07:41:26.429Z,101201.16
2022-10-04T07:43:59.576Z,101197.59
2022-10-04T07:46:41.061Z,101193.94
2022-10-04T07:49:15.012Z,101187.41
2022-10-04T07:52:04.337Z,101202.50
2022-10-04T07:54:40.763Z,101211.28
2022-10-04T07:57:15.851Z,101212.91
2022-10-04T07:59:51.446Z,101217.00
2022-10-04T08:02:31.736Z,101215.44
2022-10-04T08:05:14.202Z,101203.72
2022-10-04T08:07:57.683Z,101202.44
2022-10-04T08:10:32.154Z,101217.50
2022-10-04T08:13:07.380Z,101208.06
2022-10-04T08:15:37.854Z,101196.34
2022-10-04T08:18:25.881Z,101203.44
2022-10-04T08:20:58.650Z,101201.84
2022-10-04T08:23:42.578Z,101205.91
2022-10-04T08:26:35.414Z,101206.34
2022-10-04T08:29:43.165Z,101210.53
2022-10-04T08:32:30.745Z,101203.84
2022-10-04T08:35:28.659Z,101200.56
2022-10-04T08:38:23.093Z,101203.94
2022-10-04T08:41:31.574Z,101206.09
2022-10-04T08:44:44.552Z,101201.91
2022-10-04T08:47:44.285Z,101196.44
2022-10-04T08:50:41.000Z,101207.03
2022-10-04T08:53:52.582Z,101197.94
2022-10-04T08:56:39.867Z,101205.00
2022-10-04T08:59:46.631Z,101210.22
2022-10-04T09:02:52.604Z,101198.88
2022-10-04T09:05:35.136Z,101193.19
2022-10-04T09:08:35.805Z,101198.72
2022-10-04T09:11:30.504Z,101196.84
2022-10-04T09:14:24.537Z,101194.16
2022-10-04T09:17:06.421Z,101191.66
2022-10-04T09:19:47.119Z,101186.22
2022-10-04T09:22:20.014Z,101183.94
2022-10-04T09:25:10.040Z,101186.44
2022-10-04T09:28:00.337Z,101181.63
2022-10-04T09:30:43.287Z,101192.72
2022-10-04T09:33:30.659Z,101173.84
2022-10-04T09:36:12.818Z,101179.06
2022-10-04T09:39:28.476Z,101182.59
2022-10-04T09:42:14.993Z,101175.50
2022-10-04T09:45:20.298Z,101172.13
2022-10-04T09:48:01.689Z,101167.59
2022-10-04T09:51:07.994Z,101167.63
2022-10-04T09:53:46.285Z,101168.41
2022-10-04T09:56:33.219Z,101165.69
2022-10-04T09:59:26.857Z,101168.91
2022-10-04T10:02:28.986Z,101161.56
2022-10-04T10:05:16.740Z,101157.59
2022-10-04T10:07:53.582Z,101162.38
2022-10-04T10:10:53.079Z,101158.13
2022-10-04T10:13:42.833Z,101149.16
2022-10-04T10:16:35.231Z,101156.47
2022-10-04T10:19:28.454Z,101154.22
2022-10-04T10:22:19.695Z,101145.97
2022-10-04T10:25:08.761Z,101147.38
2022-10-04T10:28:07.034Z,101149.66
2022-10-04T10:30:52.618Z,101146.16
2022-10-04T10:33:38.341Z,101145.88
2022-10-04T10:36:35.958Z,101148.53
2022-10-04T10:40:00.557Z,101150.38
2022-10-04T10:42:51.578Z,101154.69
2022-10-04T10:45:48.424Z,101162.88
2022-10-04T10:48:24.146Z,101156.28
2022-10-04T10:51:03.338Z,101152.31
2022-10-04T10:54:05.266Z,101158.81
2022-10-04T10:57:00.749Z,101149.53
2022-10-04T11:00:11.729Z,101150.16
2022-10-04T11:03:13.121Z,101150.81
2022-10-04T11:06:19.951Z,101144.34
2022-10-04T11:09:30.676Z,101143.56
2022-10-04T11:12:31.968Z,101145.22
2022-10-04T11:15:39.656Z,101138.31
2022-10-04T11:18:47.563Z,101138.13
2022-10-04T11:21:47.220Z,101138.28
2022-10-04T11:25:00.678Z,101129.56
2022-10-04T11:27:47.802Z,101129.78
2022-10-04T11:30:25.013Z,101141.03
2022-10-04T11:33:20.077Z,101135.00
2022-10-04T11:36:02.850Z,101137.34
2022-10-04T11:38:52.045Z,101135.31
2022-10-04T11:41:33.553Z,101123.03
2022-10-04T11:44:49.053Z,101116.81
2022-10-04T11:47:40.425Z,101120.53
2022-10-04T11:50:22.756Z,101112.81
2022-10-04T11:53:14.312Z,101091.69
2022-10-04T11:56:10.091Z,101095.41
2022-10-04T11:58:53.916Z,101095.16
2022-10-04T12:01:50.577Z,101092.31
2022-10-04T12:04:36.276Z,101081.38
2022-10-04T12:07:26.528Z,101080.91
2022-10-04T12:10:02.947Z,101075.19
2022-10-04T12:12:49.893Z,101064.81
2022-10-04T12:15:38.440Z,101072.50
2022-10-04T12:18:40.003Z,101073.31
2022-10-04T12:21:38.796Z,101067.03
2022-10-04T12:24:15.863Z,101058.28
2022-10-04T12:27:17.192Z,101052.97
2022-10-04T12:30:11.370Z,101045.88
2022-10-04T12:32:57.538Z,101041.00
2022-10-04T12:35:35.326Z,101046.19
2022-10-04T12:38:37.295Z,101047.44
2022-10-04T12:41:12.273Z,101042.59
2022-10-04T12:43:55.329Z,101043.56
2022-10-04T12:46:34.564Z,101039.13
2022-10-04T12:49:21.734Z,101035.53
2022-10-04T12:51:58.703Z,101032.56
2022-10-04T12:54:39.550Z,101026.59
2022-10-04T12:57:42.494Z,101020.59
2022-10-04T13:00:18.643Z,101022.78
2022-10-04T13:02:59.006Z,101029.09
2022-10-04T13:05:31.970Z,101030.94
2022-10-04T13:08:14.861Z,101018.78
2022-10-04T13:10:56.131Z,101017.63
2022-10-04T13:14:05.411Z,101015.47
2022-10-04T13:19:41.671Z,101010.56
2022-10-04T13:22:51.454Z,101019.28
2022-10-04T13:25:27.626Z,100996.59
2022-10-04T13:28:02.832Z,101018.97
2022-10-04T13:30:39.321Z,101006.47
2022-10-04T13:33:26.916Z,101011.63
2022-10-04T13:36:02.935Z,101016.59
2022-10-04T13:38:48.487Z,101010.59
2022-10-04T13:41:28.623Z,100993.81
2022-10-04T13:44:18.681Z,101007.03
2022-10-04T13:47:05.667Z,100998.59
2022-10-04T13:49:48.794Z,100992.75
2022-10-04T13:52:48.797Z,100986.13
2022-10-04T13:55:45.663Z,100992.50
2022-10-04T13:58:29.559Z,100985.84
2022-10-04T14:01:22.392Z,100983.03
2022-10-04T14:04:05.536Z,100970.72
2022-10-04T14:07:13.606Z,100975.44
2022-10-04T14:10:18.040Z,100974.78
2022-10-04T14:13:11.542Z,100982.88
2022-10-04T14:16:07.595Z,100979.16
2022-10-04T14:19:11.942Z,100981.13
2022-10-04T14:22:12.685Z,100983.53
2022-10-04T14:25:10.469Z,100980.38
2022-10-04T14:27:56.523Z,100971.28
2022-10-04T14:30:32.882Z,100969.53
2022-10-04T14:33:32.586Z,100952.94
2022-10-04T14:36:48.569Z,100962.06
2022-10-04T14:39:36.448Z,100953.13
2022-10-04T14:42:32.073Z,100960.69
2022-10-04T14:45:17.800Z,100953.97
2022-10-04T14:48:13.222Z,100952.09
2022-10-04T14:50:58.121Z,100951.66
2022-10-04T14:53:36.911Z,100939.69
2022-10-04T14:56:31.204Z,100944.50
2022-10-04T14:59:20.540Z,100933.94
2022-10-04T15:02:14.036Z,100922.72
2022-10-04T15:05:08.226Z,100914.22
2022-10-04T15:07:39.388Z,100896.25
2022-10-04T15:10:14.408Z,100884.28
2022-10-04T15:15:50.686Z,100887.97
2022-10-04T15:18:37.753Z,100892.84
2022-10-04T15:21:21.192Z,100900.84
2022-10-04T15:23:54.601Z,100901.59
2022-10-04T15:26:49.848Z,100898.75
2022-10-04T15:29:26.806Z,100901.00
2022-10-04T15:32:07.186Z,100900.63
2022-10-04T15:34:46.862Z,100900.50
2022-10-04T15:37:25.266Z,100902.53
2022-10-04T15:40:15.776Z,100887.38
2022-10-04T15:43:01.004Z,100901.63
2022-10-04T15:45:50.567Z,100900.97
2022-10-04T15:48:38.253Z,100891.59
2022-10-04T15:51:18.171Z,100880.06
2022-10-04T15:53:55.940Z,100888.44
2022-10-04T15:56:36.204Z,100889.00
2022-10-04T15:59:43.471Z,100895.28
2022-10-04T16:02:34.309Z,100896.53
2022-10-04T16:05:15.595Z,100894.50
2022-10-04T16:08:01.405Z,100896.88
2022-10-04T16:10:33.229Z,100892.09
2022-10-04T16:13:33.400Z,100895.88
2022-10-04T16:16:32.253Z,100883.06
2022-10-04T16:19:11.685Z,100882.50
2022-10-04T16:21:51.694Z,100883.03
2022-10-04T16:24:45.527Z,100879.78
2022-10-04T16:27:50.467Z,100879.31
2022-10-04T16:30:28.070Z,100882.47
2022-10-04T16:33:11.752Z,100872.81
2022-10-04T16:35:44.832Z,100863.00
2022-10-04T16:38:25.937Z,100865.31
2022-10-04T16:41:11.120Z,100866.53
2022-10-04T16:43:49.625Z,100877.63
2022-10-04T16:46:27.177Z,100878.16
2022-10-04T16:48:57.819Z,100879.22
2022-10-04T16:51:52.696Z,100888.28
2022-10-04T16:54:43.896Z,100891.84
2022-10-04T16:57:29.760Z,100898.44
2022-10-04T17:00:00.549Z,100895.78
2022-10-04T17:03:00.465Z,100889.81
2022-10-04T17:05:58.805Z,100905.16
2022-10-04T17:08:47.092Z,100914.38
2022-10-04T17:11:44.241Z,100919.50
2022-10-04T17:14:48.128Z,100928.09
2022-10-04T17:17:24.415Z,100931.19
2022-10-04T17:19:57.383Z,100929.81
2022-10-04T17:22:39.285Z,100920.28
2022-10-04T17:25:23.751Z,100930.38
2022-10-04T17:27:54.076Z,100929.53
2022-10-04T17:30:24.164Z,100934.41
2022-10-04T17:33:32.149Z,100929.88
2022-10-04T17:36:25.998Z,100937.97
2022-10-04T17:39:09.047Z,100945.56
2022-10-04T17:42:06.089Z,100943.03
2022-10-04T17:44:55.355Z,100939.72
2022-10-04T17:47:48.407Z,100948.63
2022-10-04T17:50:39.780Z,100952.22
2022-10-04T17:53:33.173Z,100952.47
2022-10-04T17:56:03.962Z,100953.53
2022-10-04T17:58:47.381Z,100956.31
2022-10-04T18:01:25.633Z,100948.56
2022-10-04T18:03:58.256Z,100951.53
2022-10-04T18:06:33.395Z,100949.22
2022-10-04T18:09:06.949Z,100948.22
2022-10-04T18:11:47.297Z,100950.31
2022-10-04T18:14:39.621Z,100963.53
2022-10-04T18:17:13.073Z,100964.81
2022-10-04T18:19:54.757Z,100962.69
2022-10-04T18:22:26.367Z,100958.50
2022-10-04T18:25:14.000Z,100958.94
2022-10-04T18:27:53.733Z,100959.34
2022-10-04T18:30:23.968Z,100966.06
2022-10-04T18:32:55.778Z,100959.34
2022-10-04T18:35:27.857Z,100958.94
2022-10-04T18:37:58.088Z,100962.09
2022-10-04T18:40:28.563Z,100954.53
2022-10-04T18:42:58.151Z,100961.19
2022-10-04T18:45:29.774Z,100966.19
2022-10-04T18:48:00.212Z,100966.84
2022-10-04T18:50:35.209Z,100960.97
2022-10-04T18:53:24.027Z,100967.84
2022-10-04T18:56:00.318Z,100972.44
2022-10-04T18:59:02.321Z,100972.28
2022-10-04T19:02:00.846Z,100975.78
2022-10-04T19:04:39.038Z,100984.97
2022-10-04T19:07:11.885Z,100984.31
2022-10-04T19:10:02.133Z,100990.34
2022-10-04T19:12:37.505Z,100975.88
2022-10-04T19:15:20.556Z,100990.28
2022-10-04T19:18:01.953Z,100992.56
2022-10-04T19:20:40.689Z,101000.50
2022-10-04T19:23:21.120Z,101011.53
2022-10-04T19:26:26.327Z,101015.50
2022-10-04T19:28:42.327Z,101017.16
2022-10-04T19:31:20.504Z,101021.72
2022-10-04T19:33:54.970Z,101016.94
2022-10-04T19:36:36.283Z,101017.53
2022-10-04T19:39:19.210Z,101020.22
2022-10-04T19:41:53.590Z,101017.69
2022-10-04T19:44:36.019Z,101013.28
2022-10-04T19:47:08.719Z,101016.16
2022-10-04T19:49:48.331Z,101021.19
2022-10-04T19:52:24.242Z,101018.22
2022-10-04T19:54:58.840Z,101014.25
2022-10-04T19:57:38.091Z,101018.63
2022-10-04T20:00:13.729Z,101026.72
2022-10-04T20:02:48.273Z,101027.41
2022-10-04T20:05:24.784Z,101020.06
2022-10-04T20:08:01.375Z,101020.72
2022-10-04T20:10:33.424Z,101014.16
2022-10-04T20:13:23.441Z,101017.00
2022-10-04T20:15:59.603Z,101012.81
2022-10-04T20:18:57.735Z,101024.50
2022-10-04T20:21:31.993Z,101022.81
2022-10-04T20:24:01.739Z,101032.00
2022-10-04T20:26:56.232Z,101033.66
2022-10-04T20:30:03.837Z,101043.41
2022-10-04T20:32:58.052Z,101034.81
2022-10-04T20:36:09.546Z,101039.38
2022-10-04T20:38:51.718Z,101037.81
2022-10-04T20:42:03.381Z,101042.13
2022-10-04T20:44:45.133Z,101035.41
2022-10-04T20:47:40.322Z,101036.38
2022-10-04T20:50:20.997Z,101034.53
2022-10-04T20:52:52.656Z,101038.72
2022-10-04T20:55:29.369Z,101038.06
2022-10-04T20:58:00.367Z,101035.03
2022-10-04T21:00:33.686Z,101032.00
2022-10-04T21:03:16.075Z,101033.94
2022-10-04T21:05:44.379Z,101030.31
2022-10-04T21:08:26.405Z,101038.91
2022-10-04T21:11:15.429Z,101037.56
2022-10-04T21:13:57.868Z,101032.47
2022-10-04T21:16:44.273Z,101030.22
2022-10-04T21:19:42.809Z,101018.59
2022-10-04T21:22:11.751Z,101020.19
2022-10-04T21:24:41.515Z,101015.69
2022-10-04T21:27:12.649Z,101020.47
2022-10-04T21:29:41.025Z,101010.53
2022-10-04T21:32:08.776Z,101011.63
2022-10-04T21:34:53.934Z,101011.75
2022-10-04T21:37:22.574Z,101006.59
2022-10-04T21:39:50.392Z,101011.63
2022-10-04T21:42:19.822Z,101001.44
2022-10-04T21:44:47.500Z,101002.16
2022-10-04T21:47:15.557Z,101010.38
2022-10-04T21:49:43.521Z,100999.69
2022-10-04T21:52:11.310Z,100989.97
2022-10-04T21:54:39.021Z,100992.03
2022-10-04T21:57:06.761Z,101002.66
2022-10-04T21:59:35.832Z,100995.06
2022-10-04T22:02:03.644Z,100999.81
2022-10-04T22:04:31.367Z,100989.69
2022-10-04T22:06:59.094Z,100983.66
2022-10-04T22:09:26.951Z,100985.69
2022-10-04T22:11:54.662Z,100988.41
2022-10-04T22:14:22.384Z,100994.66
2022-10-04T22:16:51.811Z,100987.38
2022-10-04T22:19:19.729Z,100992.38
2022-10-04T22:21:47.534Z,100992.78
2022-10-04T22:24:18.662Z,100989.69
2022-10-04T22:26:47.037Z,100984.38
2022-10-04T22:29:16.380Z,100977.94
2022-10-04T22:31:47.528Z,100989.69
2022-10-04T22:34:19.982Z,100986.56
2022-10-04T22:36:49.763Z,100984.25
2022-10-04T22:39:19.522Z,100979.81
2022-10-04T22:41:53.216Z,100981.97
2022-10-04T22:44:23.297Z,100974.53
2022-10-04T22:46:53.814Z,100965.31
2022-10-04T22:49:24.691Z,100972.84
2022-10-04T22:51:54.458Z,100967.53
2022-10-04T22:54:24.944Z,100972.41
2022-10-04T22:56:53.831Z,100957.53
2022-10-04T22:59:26.668Z,100958.69
2022-10-04T23:01:54.449Z,100976.31
2022-10-04T23:04:25.849Z,100968.00
2022-10-04T23:06:54.481Z,100970.59
2022-10-04T23:09:22.231Z,100969.94
2022-10-04T23:11:50.029Z,100964.28
2022-10-04T23:14:17.710Z,100964.53
2022-10-04T23:16:47.229Z,100965.38
2022-10-04T23:19:18.662Z,100973.25
2022-10-04T23:21:49.950Z,100967.34
2022-10-04T23:24:19.626Z,100961.22
2022-10-04T23:26:49.093Z,100969.16
2022-10-04T23:29:22.287Z,100964.22
2022-10-04T23:31:51.400Z,100962.72
2022-10-04T23:34:22.634Z,100966.44
2022-10-04T23:36:52.710Z,100973.94
2022-10-04T23:39:25.877Z,100964.38
2022-10-04T23:41:54.984Z,100982.75
2022-10-04T23:44:25.034Z,100991.78
2022-10-04T23:46:52.926Z,100985.09
2022-10-04T23:49:22.517Z,100991.63
2022-10-04T23:51:56.234Z,100996.09
2022-10-04T23:54:24.520Z,100984.59
2022-10-04T23:56:52.524Z,100997.88
2022-10-04T23:59:24.620Z,100996.41
